sensor_id;sensor_type;location;lat;lon;timestamp;pressure;altitude;pressure_sealevel;temperature;humidity
15817;BME280;8009;50.070;8.232;2022-12-29T00:01:02;99254.41;;;10.70;73.62
15817;BME280;8009;50.070;8.232;2022-12-29T00:03:30;99255.06;;;10.62;73.93
15817;BME280;8009;50.070;8.232;2022-12-29T00:05:58;99249.16;;;10.68;73.79
15817;BME280;8009;50.070;8.232;2022-12-29T00:08:28;99253.00;;;10.76;73.62
15817;BME280;8009;50.070;8.232;2022-12-29T00:11:08;99248.56;;;10.65;73.68
15817;BME280;8009;50.070;8.232;2022-12-29T00:13:36;99253.41;;;10.71;73.79
15817;BME280;8009;50.070;8.232;2022-12-29T00:16:20;99256.66;;;10.65;73.96
15817;BME280;8009;50.070;8.232;2022-12-29T00:18:49;99248.81;;;10.62;74.09
15817;BME280;8009;50.070;8.232;2022-12-29T00:21:19;99251.19;;;10.55;74.12
15817;BME280;8009;50.070;8.232;2022-12-29T00:24:00;99254.63;;;10.57;74.19
15817;BME280;8009;50.070;8.232;2022-12-29T00:26:47;99250.19;;;10.56;74.23
15817;BME280;8009;50.070;8.232;2022-12-29T00:29:28;99251.72;;;10.49;74.98
15817;BME280;8009;50.070;8.232;2022-12-29T00:32:12;99255.41;;;10.69;73.80
15817;BME280;8009;50.070;8.232;2022-12-29T00:34:52;99251.34;;;10.54;74.54
15817;BME280;8009;50.070;8.232;2022-12-29T00:37:33;99252.00;;;10.46;74.91
15817;BME280;8009;50.070;8.232;2022-12-29T00:40:14;99254.72;;;10.46;74.65
15817;BME280;8009;50.070;8.232;2022-12-29T00:42:55;99248.97;;;10.39;75.19
15817;BME280;8009;50.070;8.232;2022-12-29T00:45:36;99253.97;;;10.65;74.39
15817;BME280;8009;50.070;8.232;2022-12-29T00:48:07;99241.00;;;10.38;75.30
15817;BME280;8009;50.070;8.232;2022-12-29T00:50:35;99239.38;;;10.46;75.11
15817;BME280;8009;50.070;8.232;2022-12-29T00:53:01;99230.81;;;10.72;74.26
15817;BME280;8009;50.070;8.232;2022-12-29T00:55:29;99239.06;;;10.70;74.22
15817;BME280;8009;50.070;8.232;2022-12-29T00:57:58;99247.16;;;10.70;74.19
15817;BME280;8009;50.070;8.232;2022-12-29T01:00:26;99242.16;;;10.66;74.45
15817;BME280;8009;50.070;8.232;2022-12-29T01:02:54;99241.97;;;10.58;74.58
15817;BME280;8009;50.070;8.232;2022-12-29T01:05:25;99246.25;;;10.60;74.60
15817;BME280;8009;50.070;8.232;2022-12-29T01:07:54;99235.53;;;10.49;75.13
15817;BME280;8009;50.070;8.232;2022-12-29T01:10:22;99228.41;;;10.48;74.99
15817;BME280;8009;50.070;8.232;2022-12-29T01:12:48;99226.22;;;10.63;74.77
15817;BME280;8009;50.070;8.232;2022-12-29T01:15:16;99238.81;;;10.53;75.18
15817;BME280;8009;50.070;8.232;2022-12-29T01:17:44;99228.41;;;10.69;74.58
15817;BME280;8009;50.070;8.232;2022-12-29T01:20:13;99227.91;;;10.54;75.17
15817;BME280;8009;50.070;8.232;2022-12-29T01:22:44;99237.00;;;10.53;75.84
15817;BME280;8009;50.070;8.232;2022-12-29T01:25:12;99226.88;;;10.45;76.65
15817;BME280;8009;50.070;8.232;2022-12-29T01:27:41;99222.16;;;10.68;75.64
15817;BME280;8009;50.070;8.232;2022-12-29T01:30:10;99232.53;;;10.73;75.30
15817;BME280;8009;50.070;8.232;2022-12-29T01:32:38;99232.16;;;10.57;76.51
15817;BME280;8009;50.070;8.232;2022-12-29T01:35:07;99230.81;;;10.72;76.30
15817;BME280;8009;50.070;8.232;2022-12-29T01:37:36;99221.41;;;10.66;76.31
15817;BME280;8009;50.070;8.232;2022-12-29T01:40:08;99227.56;;;10.47;77.17
15817;BME280;8009;50.070;8.232;2022-12-29T01:42:36;99234.41;;;10.82;76.36
15817;BME280;8009;50.070;8.232;2022-12-29T01:45:08;99237.28;;;10.60;77.64
15817;BME280;8009;50.070;8.232;2022-12-29T01:47:39;99235.25;;;10.52;78.00
15817;BME280;8009;50.070;8.232;2022-12-29T01:50:11;99229.75;;;10.33;78.85
15817;BME280;8009;50.070;8.232;2022-12-29T01:52:43;99230.69;;;10.73;77.07
15817;BME280;8009;50.070;8.232;2022-12-29T01:55:19;99242.75;;;10.69;77.50
15817;BME280;8009;50.070;8.232;2022-12-29T01:57:49;99244.44;;;10.40;79.10
15817;BME280;8009;50.070;8.232;2022-12-29T02:00:20;99244.38;;;10.30;79.85
15817;BME280;8009;50.070;8.232;2022-12-29T02:02:51;99236.47;;;10.38;79.73
15817;BME280;8009;50.070;8.232;2022-12-29T02:05:25;99235.66;;;10.68;79.00
15817;BME280;8009;50.070;8.232;2022-12-29T02:07:59;99227.25;;;10.71;78.34
15817;BME280;8009;50.070;8.232;2022-12-29T02:10:33;99232.34;;;10.65;79.19
15817;BME280;8009;50.070;8.232;2022-12-29T02:13:02;99225.69;;;10.69;78.59
15817;BME280;8009;50.070;8.232;2022-12-29T02:15:54;99227.16;;;10.52;79.53
15817;BME280;8009;50.070;8.232;2022-12-29T02:18:34;99217.78;;;10.46;80.39
15817;BME280;8009;50.070;8.232;2022-12-29T02:24:39;99197.47;;;10.52;80.43
15817;BME280;8009;50.070;8.232;2022-12-29T02:27:29;99187.59;;;10.72;79.70
15817;BME280;8009;50.070;8.232;2022-12-29T02:30:07;99190.63;;;10.79;79.11
15817;BME280;8009;50.070;8.232;2022-12-29T02:32:49;99179.66;;;10.70;79.18
15817;BME280;8009;50.070;8.232;2022-12-29T02:35:27;99179.47;;;10.62;79.54
15817;BME280;8009;50.070;8.232;2022-12-29T02:38:07;99177.38;;;10.66;79.53
15817;BME280;8009;50.070;8.232;2022-12-29T02:40:42;99184.28;;;10.59;79.46
15817;BME280;8009;50.070;8.232;2022-12-29T02:46:37;99170.69;;;10.70;79.46
15817;BME280;8009;50.070;8.232;2022-12-29T02:55:51;99159.31;;;10.66;79.45
15817;BME280;8009;50.070;8.232;2022-12-29T02:58:21;99152.22;;;10.65;79.48
15817;BME280;8009;50.070;8.232;2022-12-29T03:01:10;99143.44;;;10.73;79.26
15817;BME280;8009;50.070;8.232;2022-12-29T03:03:50;99147.75;;;10.24;80.76
15817;BME280;8009;50.070;8.232;2022-12-29T03:06:32;99142.47;;;10.43;80.78
15817;BME280;8009;50.070;8.232;2022-12-29T03:09:12;99139.94;;;10.92;78.94
15817;BME280;8009;50.070;8.232;2022-12-29T03:11:52;99140.38;;;10.57;80.10
15817;BME280;8009;50.070;8.232;2022-12-29T03:14:47;99138.13;;;10.62;80.49
15817;BME280;8009;50.070;8.232;2022-12-29T03:20:17;99128.72;;;10.56;80.76
15817;BME280;8009;50.070;8.232;2022-12-29T03:22:49;99124.31;;;10.55;80.35
15817;BME280;8009;50.070;8.232;2022-12-29T03:25:22;99136.66;;;10.48;80.92
15817;BME280;8009;50.070;8.232;2022-12-29T03:27:58;99131.03;;;10.61;80.63
15817;BME280;8009;50.070;8.232;2022-12-29T03:30:29;99128.63;;;10.67;80.06
15817;BME280;8009;50.070;8.232;2022-12-29T03:33:02;99127.94;;;10.75;79.89
15817;BME280;8009;50.070;8.232;2022-12-29T03:35:34;99127.59;;;10.59;80.66
15817;BME280;8009;50.070;8.232;2022-12-29T03:38:09;99133.31;;;10.65;80.83
15817;BME280;8009;50.070;8.232;2022-12-29T03:40:41;99134.44;;;10.63;80.95
15817;BME280;8009;50.070;8.232;2022-12-29T03:43:13;99141.84;;;10.70;81.04
15817;BME280;8009;50.070;8.232;2022-12-29T03:45:44;99130.47;;;10.67;81.03
15817;BME280;8009;50.070;8.232;2022-12-29T03:48:12;99123.81;;;10.71;81.39
15817;BME280;8009;50.070;8.232;2022-12-29T03:50:41;99109.34;;;10.41;82.00
15817;BME280;8009;50.070;8.232;2022-12-29T03:53:09;99117.53;;;10.61;80.89
15817;BME280;8009;50.070;8.232;2022-12-29T03:55:37;99113.88;;;10.81;80.36
15817;BME280;8009;50.070;8.232;2022-12-29T03:58:06;99103.78;;;10.73;80.18
15817;BME280;8009;50.070;8.232;2022-12-29T04:00:37;99101.03;;;10.64;80.80
15817;BME280;8009;50.070;8.232;2022-12-29T04:03:05;99104.06;;;10.70;80.38
15817;BME280;8009;50.070;8.232;2022-12-29T04:05:34;99102.94;;;10.73;79.91
15817;BME280;8009;50.070;8.232;2022-12-29T04:08:02;99105.47;;;10.74;79.59
15817;BME280;8009;50.070;8.232;2022-12-29T04:10:30;99105.34;;;10.76;79.44
15817;BME280;8009;50.070;8.232;2022-12-29T04:12:58;99104.91;;;10.71;79.68
15817;BME280;8009;50.070;8.232;2022-12-29T04:15:27;99096.69;;;10.72;79.65
15817;BME280;8009;50.070;8.232;2022-12-29T04:17:58;99101.88;;;10.64;79.92
15817;BME280;8009;50.070;8.232;2022-12-29T04:20:26;99103.47;;;10.57;79.79
15817;BME280;8009;50.070;8.232;2022-12-29T04:23:07;99103.91;;;10.62;79.43
15817;BME280;8009;50.070;8.232;2022-12-29T04:25:35;99104.16;;;10.49;80.63
15817;BME280;8009;50.070;8.232;2022-12-29T04:28:03;99109.44;;;10.61;79.66
15817;BME280;8009;50.070;8.232;2022-12-29T04:30:33;99111.75;;;10.85;78.65
15817;BME280;8009;50.070;8.232;2022-12-29T04:33:04;99097.66;;;10.62;77.98
15817;BME280;8009;50.070;8.232;2022-12-29T04:35:32;99099.78;;;10.68;78.58
15817;BME280;8009;50.070;8.232;2022-12-29T04:38:01;99106.59;;;10.72;78.27
15817;BME280;8009;50.070;8.232;2022-12-29T04:40:29;99091.13;;;10.74;77.65
15817;BME280;8009;50.070;8.232;2022-12-29T04:42:57;99092.84;;;10.94;76.99
15817;BME280;8009;50.070;8.232;2022-12-29T04:45:28;99097.41;;;10.84;77.51
15817;BME280;8009;50.070;8.232;2022-12-29T04:47:56;99094.72;;;10.94;77.71
15817;BME280;8009;50.070;8.232;2022-12-29T04:50:27;99095.09;;;10.70;77.10
15817;BME280;8009;50.070;8.232;2022-12-29T04:52:56;99099.69;;;10.89;76.55
15817;BME280;8009;50.070;8.232;2022-12-29T04:55:24;99095.72;;;10.93;76.43
15817;BME280;8009;50.070;8.232;2022-12-29T04:57:52;99100.81;;;10.86;76.41
15817;BME280;8009;50.070;8.232;2022-12-29T05:00:21;99093.78;;;10.64;76.69
15817;BME280;8009;50.070;8.232;2022-12-29T05:02:52;99091.69;;;10.87;75.90
15817;BME280;8009;50.070;8.232;2022-12-29T05:05:20;99099.25;;;10.93;75.07
15817;BME280;8009;50.070;8.232;2022-12-29T05:07:51;99109.50;;;11.00;74.56
15817;BME280;8009;50.070;8.232;2022-12-29T05:10:19;99102.66;;;10.76;76.31
15817;BME280;8009;50.070;8.232;2022-12-29T05:12:48;99102.63;;;10.66;76.53
15817;BME280;8009;50.070;8.232;2022-12-29T05:15:16;99110.91;;;10.84;75.30
15817;BME280;8009;50.070;8.232;2022-12-29T05:17:45;99119.00;;;10.94;75.18
15817;BME280;8009;50.070;8.232;2022-12-29T05:20:13;99111.19;;;10.91;75.83
15817;BME280;8009;50.070;8.232;2022-12-29T05:22:41;99109.78;;;10.96;76.00
15817;BME280;8009;50.070;8.232;2022-12-29T05:25:12;99114.00;;;10.80;77.28
15817;BME280;8009;50.070;8.232;2022-12-29T05:27:40;99107.06;;;10.87;77.70
15817;BME280;8009;50.070;8.232;2022-12-29T05:30:10;99108.94;;;11.06;77.17
15817;BME280;8009;50.070;8.232;2022-12-29T05:32:38;99097.41;;;10.94;77.93
15817;BME280;8009;50.070;8.232;2022-12-29T05:35:08;99103.97;;;11.01;78.11
15817;BME280;8009;50.070;8.232;2022-12-29T05:37:36;99108.66;;;10.99;77.86
15817;BME280;8009;50.070;8.232;2022-12-29T05:40:06;99099.84;;;11.07;77.57
15817;BME280;8009;50.070;8.232;2022-12-29T05:42:37;99097.97;;;10.88;78.25
15817;BME280;8009;50.070;8.232;2022-12-29T05:45:08;99095.56;;;10.94;78.28
15817;BME280;8009;50.070;8.232;2022-12-29T05:47:36;99091.72;;;10.78;78.71
15817;BME280;8009;50.070;8.232;2022-12-29T05:50:05;99099.06;;;10.76;78.68
15817;BME280;8009;50.070;8.232;2022-12-29T05:52:33;99100.00;;;10.95;77.63
15817;BME280;8009;50.070;8.232;2022-12-29T05:55:01;99101.97;;;10.93;77.84
15817;BME280;8009;50.070;8.232;2022-12-29T05:57:30;99100.56;;;11.09;76.97
15817;BME280;8009;50.070;8.232;2022-12-29T06:00:01;99104.22;;;10.98;77.62
15817;BME280;8009;50.070;8.232;2022-12-29T06:02:30;99097.13;;;10.97;77.84
15817;BME280;8009;50.070;8.232;2022-12-29T06:04:58;99104.94;;;11.10;77.12
15817;BME280;8009;50.070;8.232;2022-12-29T06:07:26;99096.16;;;11.08;77.04
15817;BME280;8009;50.070;8.232;2022-12-29T06:09:54;99105.22;;;10.87;77.93
15817;BME280;8009;50.070;8.232;2022-12-29T06:12:23;99114.19;;;11.17;76.71
15817;BME280;8009;50.070;8.232;2022-12-29T06:14:51;99107.53;;;11.21;76.33
15817;BME280;8009;50.070;8.232;2022-12-29T06:17:22;99102.13;;;11.11;76.72
15817;BME280;8009;50.070;8.232;2022-12-29T06:19:50;99103.09;;;11.01;77.26
15817;BME280;8009;50.070;8.232;2022-12-29T06:22:18;99101.97;;;11.03;77.04
15817;BME280;8009;50.070;8.232;2022-12-29T06:24:47;99103.53;;;11.06;77.42
15817;BME280;8009;50.070;8.232;2022-12-29T06:27:15;99098.66;;;10.70;78.38
15817;BME280;8009;50.070;8.232;2022-12-29T06:29:43;99094.56;;;10.76;78.07
15817;BME280;8009;50.070;8.232;2022-12-29T06:32:12;99094.72;;;10.94;77.46
15817;BME280;8009;50.070;8.232;2022-12-29T06:34:43;99103.66;;;10.94;77.47
15817;BME280;8009;50.070;8.232;2022-12-29T06:37:11;99095.28;;;10.88;77.59
15817;BME280;8009;50.070;8.232;2022-12-29T06:39:40;99100.09;;;10.94;77.73
15817;BME280;8009;50.070;8.232;2022-12-29T06:42:09;99116.28;;;10.65;78.85
15817;BME280;8009;50.070;8.232;2022-12-29T06:44:37;99107.19;;;10.76;78.76
15817;BME280;8009;50.070;8.232;2022-12-29T06:47:05;99109.88;;;10.76;79.37
15817;BME280;8009;50.070;8.232;2022-12-29T06:49:34;99111.34;;;10.89;79.50
15817;BME280;8009;50.070;8.232;2022-12-29T06:52:05;99102.59;;;10.57;80.34
15817;BME280;8009;50.070;8.232;2022-12-29T06:54:37;99110.00;;;10.64;80.40
15817;BME280;8009;50.070;8.232;2022-12-29T06:57:05;99105.09;;;10.89;79.71
15817;BME280;8009;50.070;8.232;2022-12-29T06:59:33;99105.13;;;10.48;80.67
15817;BME280;8009;50.070;8.232;2022-12-29T07:02:02;99099.63;;;10.60;79.76
15817;BME280;8009;50.070;8.232;2022-12-29T07:04:30;99105.16;;;10.58;80.35
15817;BME280;8009;50.070;8.232;2022-12-29T07:06:59;99096.38;;;10.76;80.02
15817;BME280;8009;50.070;8.232;2022-12-29T07:09:29;99100.25;;;10.92;79.41
15817;BME280;8009;50.070;8.232;2022-12-29T07:11:58;99096.72;;;10.92;79.55
15817;BME280;8009;50.070;8.232;2022-12-29T07:14:26;99106.81;;;11.00;79.35
15817;BME280;8009;50.070;8.232;2022-12-29T07:16:54;99097.28;;;10.95;79.86
15817;BME280;8009;50.070;8.232;2022-12-29T07:19:23;99105.06;;;10.69;79.36
15817;BME280;8009;50.070;8.232;2022-12-29T07:21:51;99106.09;;;10.88;79.06
15817;BME280;8009;50.070;8.232;2022-12-29T07:24:22;99103.66;;;10.94;78.80
15817;BME280;8009;50.070;8.232;2022-12-29T07:26:53;99102.34;;;10.69;79.04
15817;BME280;8009;50.070;8.232;2022-12-29T07:29:22;99104.91;;;10.61;79.61
15817;BME280;8009;50.070;8.232;2022-12-29T07:31:50;99096.28;;;11.06;77.60
15817;BME280;8009;50.070;8.232;2022-12-29T07:34:19;99107.75;;;10.79;78.81
15817;BME280;8009;50.070;8.232;2022-12-29T07:36:47;99102.69;;;10.95;77.81
15817;BME280;8009;50.070;8.232;2022-12-29T07:39:15;99099.38;;;10.82;78.55
15817;BME280;8009;50.070;8.232;2022-12-29T07:41:43;99111.19;;;10.91;77.35
15817;BME280;8009;50.070;8.232;2022-12-29T07:44:14;99113.31;;;10.78;76.67
15817;BME280;8009;50.070;8.232;2022-12-29T07:46:43;99113.56;;;10.74;76.43
15817;BME280;8009;50.070;8.232;2022-12-29T07:49:11;99110.06;;;10.84;75.84
15817;BME280;8009;50.070;8.232;2022-12-29T07:51:39;99120.13;;;10.82;75.86
15817;BME280;8009;50.070;8.232;2022-12-29T07:54:08;99128.69;;;11.06;74.62
15817;BME280;8009;50.070;8.232;2022-12-29T07:56:38;99127.13;;;10.94;75.14
15817;BME280;8009;50.070;8.232;2022-12-29T07:59:06;99125.03;;;11.07;74.35
15817;BME280;8009;50.070;8.232;2022-12-29T08:05:18;99139.63;;;10.85;75.56
15817;BME280;8009;50.070;8.232;2022-12-29T08:07:47;99141.78;;;11.20;74.16
15817;BME280;8009;50.070;8.232;2022-12-29T08:13:26;99145.09;;;11.14;73.81
15817;BME280;8009;50.070;8.232;2022-12-29T08:15:54;99140.81;;;11.12;73.62
15817;BME280;8009;50.070;8.232;2022-12-29T08:18:23;99144.06;;;11.25;73.51
15817;BME280;8009;50.070;8.232;2022-12-29T08:20:54;99153.03;;;11.35;72.20
15817;BME280;8009;50.070;8.232;2022-12-29T08:23:23;99150.34;;;11.35;73.52
15817;BME280;8009;50.070;8.232;2022-12-29T08:25:57;99152.19;;;11.15;72.94
15817;BME280;8009;50.070;8.232;2022-12-29T08:28:25;99157.09;;;10.91;74.86
15817;BME280;8009;50.070;8.232;2022-12-29T08:30:57;99153.03;;;11.16;74.07
15817;BME280;8009;50.070;8.232;2022-12-29T08:33:26;99161.13;;;11.16;75.38
15817;BME280;8009;50.070;8.232;2022-12-29T08:36:01;99160.88;;;11.19;74.77
15817;BME280;8009;50.070;8.232;2022-12-29T08:38:30;99156.97;;;10.92;75.70
15817;BME280;8009;50.070;8.232;2022-12-29T08:41:00;99160.56;;;11.32;75.08
15817;BME280;8009;50.070;8.232;2022-12-29T08:43:29;99166.00;;;11.22;76.60
15817;BME280;8009;50.070;8.232;2022-12-29T08:46:01;99172.38;;;11.21;77.23
15817;BME280;8009;50.070;8.232;2022-12-29T08:48:30;99172.09;;;11.14;78.27
15817;BME280;8009;50.070;8.232;2022-12-29T08:51:01;99173.47;;;10.89;79.31
15817;BME280;8009;50.070;8.232;2022-12-29T08:53:29;99164.66;;;10.97;79.64
15817;BME280;8009;50.070;8.232;2022-12-29T08:55:58;99175.78;;;11.13;79.26
15817;BME280;8009;50.070;8.232;2022-12-29T08:58:27;99168.94;;;11.09;79.18
15817;BME280;8009;50.070;8.232;2022-12-29T09:00:56;99179.97;;;10.87;79.91
15817;BME280;8009;50.070;8.232;2022-12-29T09:03:25;99192.44;;;10.68;80.60
15817;BME280;8009;50.070;8.232;2022-12-29T09:05:56;99191.81;;;10.95;79.83
15817;BME280;8009;50.070;8.232;2022-12-29T09:08:29;99199.13;;;11.14;78.54
15817;BME280;8009;50.070;8.232;2022-12-29T09:11:06;99189.25;;;10.94;78.89
15817;BME280;8009;50.070;8.232;2022-12-29T09:13:34;99195.91;;;10.49;80.80
15817;BME280;8009;50.070;8.232;2022-12-29T09:16:04;99189.59;;;10.70;81.03
15817;BME280;8009;50.070;8.232;2022-12-29T09:18:33;99204.94;;;10.69;80.54
15817;BME280;8009;50.070;8.232;2022-12-29T09:21:05;99214.22;;;10.86;80.88
15817;BME280;8009;50.070;8.232;2022-12-29T09:23:37;99204.75;;;11.02;79.70
15817;BME280;8009;50.070;8.232;2022-12-29T09:26:06;99199.63;;;10.89;80.32
15817;BME280;8009;50.070;8.232;2022-12-29T09:28:35;99202.84;;;10.73;81.07
15817;BME280;8009;50.070;8.232;2022-12-29T09:31:04;99213.72;;;11.02;80.19
15817;BME280;8009;50.070;8.232;2022-12-29T09:33:32;99214.00;;;10.99;80.09
15817;BME280;8009;50.070;8.232;2022-12-29T09:36:02;99207.72;;;10.89;80.71
15817;BME280;8009;50.070;8.232;2022-12-29T09:38:30;99212.00;;;11.01;80.58
15817;BME280;8009;50.070;8.232;2022-12-29T09:41:06;99204.91;;;11.10;80.14
15817;BME280;8009;50.070;8.232;2022-12-29T09:43:50;99209.72;;;10.96;80.41
15817;BME280;8009;50.070;8.232;2022-12-29T09:46:24;99210.88;;;11.04;80.06
15817;BME280;8009;50.070;8.232;2022-12-29T09:49:01;99219.97;;;11.03;81.47
15817;BME280;8009;50.070;8.232;2022-12-29T09:51:35;99215.56;;;11.02;81.40
15817;BME280;8009;50.070;8.232;2022-12-29T09:54:22;99209.78;;;10.76;82.29
15817;BME280;8009;50.070;8.232;2022-12-29T09:56:55;99215.97;;;10.97;81.19
15817;BME280;8009;50.070;8.232;2022-12-29T09:59:38;99209.41;;;10.80;81.91
15817;BME280;8009;50.070;8.232;2022-12-29T10:02:20;99206.38;;;10.73;81.70
15817;BME280;8009;50.070;8.232;2022-12-29T10:04:51;99207.22;;;11.14;80.78
15817;BME280;8009;50.070;8.232;2022-12-29T10:07:28;99187.72;;;11.20;79.89
15817;BME280;8009;50.070;8.232;2022-12-29T10:10:06;99199.38;;;11.11;80.69
15817;BME280;8009;50.070;8.232;2022-12-29T10:12:52;99205.09;;;11.28;79.96
15817;BME280;8009;50.070;8.232;2022-12-29T10:18:31;99203.00;;;10.91;80.59
15817;BME280;8009;50.070;8.232;2022-12-29T10:21:08;99207.72;;;10.89;80.75
15817;BME280;8009;50.070;8.232;2022-12-29T10:23:50;99223.34;;;10.95;80.73
15817;BME280;8009;50.070;8.232;2022-12-29T10:26:22;99215.25;;;10.95;80.10
15817;BME280;8009;50.070;8.232;2022-12-29T10:28:57;99218.38;;;10.90;79.62
15817;BME280;8009;50.070;8.232;2022-12-29T10:31:33;99226.56;;;11.19;78.09
15817;BME280;8009;50.070;8.232;2022-12-29T10:34:15;99216.06;;;10.76;79.37
15817;BME280;8009;50.070;8.232;2022-12-29T10:36:49;99228.75;;;10.95;77.43
15817;BME280;8009;50.070;8.232;2022-12-29T10:39:22;99222.34;;;10.86;76.44
15817;BME280;8009;50.070;8.232;2022-12-29T10:42:03;99222.22;;;10.97;77.20
15817;BME280;8009;50.070;8.232;2022-12-29T10:48:03;99219.47;;;11.28;74.98
15817;BME280;8009;50.070;8.232;2022-12-29T10:50:45;99222.75;;;11.22;75.45
15817;BME280;8009;50.070;8.232;2022-12-29T10:53:19;99213.53;;;11.54;74.02
15817;BME280;8009;50.070;8.232;2022-12-29T10:55:49;99216.75;;;11.28;73.05
15817;BME280;8009;50.070;8.232;2022-12-29T10:58:18;99206.53;;;11.22;74.11
15817;BME280;8009;50.070;8.232;2022-12-29T11:00:49;99213.50;;;11.44;72.68
15817;BME280;8009;50.070;8.232;2022-12-29T11:06:27;99217.47;;;11.20;72.95
15817;BME280;8009;50.070;8.232;2022-12-29T11:09:01;99225.66;;;11.88;71.72
15817;BME280;8009;50.070;8.232;2022-12-29T11:11:33;99225.63;;;11.79;71.35
15817;BME280;8009;50.070;8.232;2022-12-29T11:14:11;99238.06;;;11.91;70.42
15817;BME280;8009;50.070;8.232;2022-12-29T11:16:41;99226.34;;;11.81;71.22
15817;BME280;8009;50.070;8.232;2022-12-29T11:19:20;99232.63;;;11.71;70.86
15817;BME280;8009;50.070;8.232;2022-12-29T11:21:54;99221.06;;;11.50;70.90
15817;BME280;8009;50.070;8.232;2022-12-29T11:24:25;99225.50;;;11.61;70.05
15817;BME280;8009;50.070;8.232;2022-12-29T11:26:55;99236.63;;;11.87;69.67
15817;BME280;8009;50.070;8.232;2022-12-29T11:29:28;99230.34;;;11.86;69.60
15817;BME280;8009;50.070;8.232;2022-12-29T11:31:58;99228.66;;;11.95;68.57
15817;BME280;8009;50.070;8.232;2022-12-29T11:34:31;99232.63;;;11.91;69.81
15817;BME280;8009;50.070;8.232;2022-12-29T11:37:05;99232.31;;;11.65;70.04
15817;BME280;8009;50.070;8.232;2022-12-29T11:39:38;99225.38;;;11.91;69.99
15817;BME280;8009;50.070;8.232;2022-12-29T11:42:14;99225.19;;;12.22;68.91
15817;BME280;8009;50.070;8.232;2022-12-29T11:44:44;99240.47;;;11.84;69.20
15817;BME280;8009;50.070;8.232;2022-12-29T11:47:21;99221.09;;;11.99;69.88
15817;BME280;8009;50.070;8.232;2022-12-29T11:49:54;99228.50;;;12.06;68.83
15817;BME280;8009;50.070;8.232;2022-12-29T11:52:28;99229.59;;;12.33;67.95
15817;BME280;8009;50.070;8.232;2022-12-29T11:54:59;99225.16;;;12.32;68.13
15817;BME280;8009;50.070;8.232;2022-12-29T11:57:32;99231.03;;;12.17;68.60
15817;BME280;8009;50.070;8.232;2022-12-29T12:00:09;99228.19;;;12.29;67.58
15817;BME280;8009;50.070;8.232;2022-12-29T12:02:50;99236.59;;;12.63;66.93
15817;BME280;8009;50.070;8.232;2022-12-29T12:05:23;99235.72;;;12.25;67.13
15817;BME280;8009;50.070;8.232;2022-12-29T12:08:04;99235.91;;;12.61;66.68
15817;BME280;8009;50.070;8.232;2022-12-29T12:10:42;99233.16;;;12.33;67.25
15817;BME280;8009;50.070;8.232;2022-12-29T12:13:18;99229.59;;;12.33;66.98
15817;BME280;8009;50.070;8.232;2022-12-29T12:15:52;99231.56;;;12.40;66.88
15817;BME280;8009;50.070;8.232;2022-12-29T12:18:34;99224.03;;;12.34;66.89
15817;BME280;8009;50.070;8.232;2022-12-29T12:21:09;99230.16;;;12.17;67.90
15817;BME280;8009;50.070;8.232;2022-12-29T12:23:58;99235.13;;;12.31;67.10
15817;BME280;8009;50.070;8.232;2022-12-29T12:26:36;99225.34;;;12.11;67.48
15817;BME280;8009;50.070;8.232;2022-12-29T12:29:11;99221.75;;;12.30;66.51
15817;BME280;8009;50.070;8.232;2022-12-29T12:31:46;99210.38;;;12.16;66.86
15817;BME280;8009;50.070;8.232;2022-12-29T12:34:22;99208.63;;;12.44;65.63
15817;BME280;8009;50.070;8.232;2022-12-29T12:37:10;99199.44;;;12.08;67.55
15817;BME280;8009;50.070;8.232;2022-12-29T12:39:52;99209.00;;;12.03;66.05
15817;BME280;8009;50.070;8.232;2022-12-29T12:42:38;99225.03;;;12.24;66.45
15817;BME280;8009;50.070;8.232;2022-12-29T12:45:30;99213.13;;;12.07;66.05
15817;BME280;8009;50.070;8.232;2022-12-29T12:48:09;99220.38;;;12.06;66.37
15817;BME280;8009;50.070;8.232;2022-12-29T12:50:52;99221.66;;;12.02;66.45
15817;BME280;8009;50.070;8.232;2022-12-29T12:53:38;99221.88;;;12.28;66.91
15817;BME280;8009;50.070;8.232;2022-12-29T12:56:26;99214.69;;;11.90;67.74
15817;BME280;8009;50.070;8.232;2022-12-29T12:59:04;99212.09;;;11.69;68.21
15817;BME280;8009;50.070;8.232;2022-12-29T13:01:42;99201.31;;;11.88;68.28
15817;BME280;8009;50.070;8.232;2022-12-29T13:07:34;99199.88;;;11.94;68.21
15817;BME280;8009;50.070;8.232;2022-12-29T13:10:29;99185.91;;;12.08;67.45
15817;BME280;8009;50.070;8.232;2022-12-29T13:13:21;99190.69;;;12.34;67.13
15817;BME280;8009;50.070;8.232;2022-12-29T13:15:57;99181.72;;;12.71;65.57
15817;BME280;8009;50.070;8.232;2022-12-29T13:18:35;99191.13;;;12.29;67.34
15817;BME280;8009;50.070;8.232;2022-12-29T13:21:10;99175.69;;;12.39;65.72
15817;BME280;8009;50.070;8.232;2022-12-29T13:23:50;99177.00;;;12.35;66.55
15817;BME280;8009;50.070;8.232;2022-12-29T13:26:27;99192.19;;;12.56;65.23
15817;BME280;8009;50.070;8.232;2022-12-29T13:29:07;99196.44;;;12.58;64.92
15817;BME280;8009;50.070;8.232;2022-12-29T13:31:45;99203.09;;;12.27;65.74
15817;BME280;8009;50.070;8.232;2022-12-29T13:34:25;99204.69;;;12.19;66.21
15817;BME280;8009;50.070;8.232;2022-12-29T13:37:03;99214.22;;;12.24;66.47
15817;BME280;8009;50.070;8.232;2022-12-29T13:39:34;99209.47;;;12.45;65.51
15817;BME280;8009;50.070;8.232;2022-12-29T13:42:06;99201.72;;;12.60;64.95
15817;BME280;8009;50.070;8.232;2022-12-29T13:44:43;99198.16;;;12.59;64.57
15817;BME280;8009;50.070;8.232;2022-12-29T13:47:21;99208.75;;;12.80;65.02
15817;BME280;8009;50.070;8.232;2022-12-29T13:49:52;99203.78;;;12.38;64.89
15817;BME280;8009;50.070;8.232;2022-12-29T13:52:32;99204.81;;;12.65;64.07
15817;BME280;8009;50.070;8.232;2022-12-29T13:55:26;99213.09;;;12.63;63.95
15817;BME280;8009;50.070;8.232;2022-12-29T13:58:01;99216.41;;;12.48;64.62
15817;BME280;8009;50.070;8.232;2022-12-29T14:00:41;99207.66;;;12.16;64.33
15817;BME280;8009;50.070;8.232;2022-12-29T14:03:23;99217.31;;;12.38;64.18
15817;BME280;8009;50.070;8.232;2022-12-29T14:06:11;99220.00;;;12.48;63.53
15817;BME280;8009;50.070;8.232;2022-12-29T14:08:42;99231.44;;;12.23;64.23
15817;BME280;8009;50.070;8.232;2022-12-29T14:11:13;99228.72;;;12.32;64.12
15817;BME280;8009;50.070;8.232;2022-12-29T14:13:44;99247.16;;;12.00;65.07
15817;BME280;8009;50.070;8.232;2022-12-29T14:16:27;99241.03;;;12.07;63.98